Time;durP1;ratioP1;P1;durP2;ratioP2;P2;SDS_P1;SDS_P2;PMS_P1;PMS_P2;Temp;Humidity;BMP_temperature;BMP_pressure;BME280_temperature;BME280_humidity;BME280_pressure;Samples;Min_cycle;Max_cycle;Signal;HPM_P1;HPM_P2
2022/05/08 00:01:17;;;;;;;11.03;8.37;;;;;;;10.39;100.00;101396.50;4937428;29;20686;-70
2022/05/08 00:03:43;;;;;;;9.73;8.60;;;;;;;10.38;100.00;101387.81;4940234;29;20585;-70
2022/05/08 00:06:11;;;;;;;11.83;8.90;;;;;;;10.38;100.00;101395.66;4944773;28;20218;-70
2022/05/08 00:08:38;;;;;;;10.37;9.03;;;;;;;10.41;100.00;101386.91;4940029;28;20306;-70
2022/05/08 00:11:05;;;;;;;9.87;8.87;;;;;;;10.37;100.00;101393.06;4933239;29;20543;-71
2022/05/08 00:13:32;;;;;;;11.63;9.57;;;;;;;10.36;100.00;101397.41;4937643;29;20215;-70
2022/05/08 00:15:58;;;;;;;12.87;10.53;;;;;;;10.38;100.00;101390.44;4947214;28;20211;-70
2022/05/08 00:18:26;;;;;;;15.40;11.97;;;;;;;10.39;100.00;101406.94;4937355;28;20735;-70
2022/05/08 00:20:53;;;;;;;12.50;10.63;;;;;;;10.38;100.00;101408.69;4944217;29;20201;-70
2022/05/08 00:23:19;;;;;;;13.37;9.77;;;;;;;10.43;100.00;101411.25;4941134;29;20215;-70
2022/05/08 00:25:47;;;;;;;11.97;10.00;;;;;;;10.45;100.00;101408.59;4940219;29;20214;-70
2022/05/08 00:28:13;;;;;;;12.10;9.70;;;;;;;10.50;100.00;101414.59;4942282;28;20235;-70
2022/05/08 00:30:40;;;;;;;13.03;10.63;;;;;;;10.53;100.00;101419.78;4936693;28;20246;-71
2022/05/08 00:33:06;;;;;;;11.30;9.50;;;;;;;10.56;100.00;101412.78;4938692;28;20289;-70
2022/05/08 00:35:34;;;;;;;13.43;9.90;;;;;;;10.60;100.00;101419.69;4935345;29;20207;-71
2022/05/08 00:38:01;;;;;;;11.13;9.57;;;;;;;10.62;100.00;101411.84;4943102;29;20216;-70
2022/05/08 00:40:27;;;;;;;13.47;9.93;;;;;;;10.64;100.00;101411.81;4942901;28;20294;-70
2022/05/08 00:42:53;;;;;;;11.90;9.33;;;;;;;10.67;100.00;101410.03;4941418;29;20203;-70
2022/05/08 00:45:20;;;;;;;9.90;8.70;;;;;;;10.73;100.00;101407.34;4944055;28;20215;-70
2022/05/08 00:47:46;;;;;;;11.53;9.47;;;;;;;10.75;100.00;101409.94;4946175;28;20279;-70
2022/05/08 00:50:13;;;;;;;10.33;8.97;;;;;;;10.77;100.00;101405.56;4936587;28;20200;-71
2022/05/08 00:52:42;;;;;;;14.33;9.70;;;;;;;10.74;100.00;101400.38;4939804;29;20207;-70
2022/05/08 00:55:10;;;;;;;12.30;9.87;;;;;;;10.72;100.00;101403.00;4946464;29;20203;-70
2022/05/08 00:57:41;;;;;;;12.90;9.23;;;;;;;10.71;100.00;101403.91;4945897;29;20211;-70
2022/05/08 01:00:10;;;;;;;11.07;9.53;;;;;;;10.71;100.00;101408.25;4942415;28;20240;-70
2022/05/08 01:02:37;;;;;;;11.10;9.63;;;;;;;10.72;100.00;101407.38;4936456;29;20211;-70
2022/05/08 01:05:05;;;;;;;11.30;9.73;;;;;;;10.73;100.00;101412.56;4944833;28;20229;-70
2022/05/08 01:07:33;;;;;;;11.20;9.50;;;;;;;10.72;100.00;101410.81;4943645;29;20261;-70
2022/05/08 01:10:01;;;;;;;12.20;9.63;;;;;;;10.71;100.00;101413.44;4945550;28;20259;-70
2022/05/08 01:12:28;;;;;;;11.80;9.97;;;;;;;10.73;100.00;101412.56;4937421;28;20217;-70
2022/05/08 01:15:15;;;;;;;9.57;8.57;;;;;;;10.72;100.00;101418.66;4946002;29;20203;-70
2022/05/08 01:17:41;;;;;;;11.80;9.27;;;;;;;10.71;100.00;101411.72;4939636;29;20258;-70
2022/05/08 01:20:08;;;;;;;10.30;9.20;;;;;;;10.71;100.00;101418.66;4937476;28;20234;-70
2022/05/08 01:22:36;;;;;;;12.37;9.23;;;;;;;10.67;100.00;101415.25;4940067;29;20216;-70
2022/05/08 01:25:04;;;;;;;13.90;9.93;;;;;;;10.72;100.00;101417.81;4934257;29;20199;-70
2022/05/08 01:27:30;;;;;;;11.43;9.47;;;;;;;10.72;100.00;101423.00;4949079;29;20227;-70
2022/05/08 01:29:57;;;;;;;13.67;9.80;;;;;;;10.70;100.00;101416.97;4943775;28;20242;-70
2022/05/08 01:32:23;;;;;;;10.77;9.53;;;;;;;10.70;100.00;101420.44;4938716;29;20565;-71
2022/05/08 01:34:50;;;;;;;10.93;9.23;;;;;;;10.74;100.00;101419.50;4941897;29;20203;-70
2022/05/08 01:37:16;;;;;;;10.50;9.37;;;;;;;10.76;100.00;101415.13;4949069;28;20245;-71
2022/05/08 01:39:44;;;;;;;13.10;9.73;;;;;;;10.74;100.00;101406.44;4946868;29;20220;-70
2022/05/08 01:42:10;;;;;;;12.20;9.10;;;;;;;10.71;100.00;101411.72;4935057;29;20215;-70
2022/05/08 01:44:37;;;;;;;11.03;9.50;;;;;;;10.74;100.00;101418.63;4937207;29;20667;-70
2022/05/08 01:49:48;;;;;;;11.40;9.00;;;;;;;10.76;100.00;101412.53;4941938;29;20222;-70
2022/05/08 01:52:14;;;;;;;13.23;10.00;;;;;;;10.79;100.00;101414.22;4937651;29;20645;-70
2022/05/08 01:54:41;;;;;;;13.20;9.80;;;;;;;10.76;100.00;101409.91;4938626;29;20683;-71
2022/05/08 01:57:08;;;;;;;10.37;9.27;;;;;;;10.75;100.00;101417.75;4944455;29;20207;-70
2022/05/08 01:59:35;;;;;;;12.77;9.53;;;;;;;10.73;100.00;101411.69;4937796;29;20256;-71
2022/05/08 02:02:01;;;;;;;12.53;10.40;;;;;;;10.74;100.00;101414.28;4948743;28;20211;-71
2022/05/08 02:04:29;;;;;;;12.20;9.47;;;;;;;10.71;100.00;101410.84;4940037;28;20709;-70
2022/05/08 02:06:57;;;;;;;11.73;9.60;;;;;;;10.71;100.00;101414.34;4938601;29;20217;-71
2022/05/08 02:09:24;;;;;;;10.83;9.73;;;;;;;10.72;100.00;101418.66;4937775;29;20233;-71
2022/05/08 02:11:50;;;;;;;12.03;9.20;;;;;;;10.75;100.00;101423.84;4949453;28;20211;-70
2022/05/08 02:14:18;;;;;;;13.27;9.97;;;;;;;10.73;100.00;101427.34;4938795;28;20222;-70
2022/05/08 02:16:44;;;;;;;10.47;9.23;;;;;;;10.73;100.00;101425.59;4943788;29;20210;-70
2022/05/08 02:19:11;;;;;;;11.47;9.67;;;;;;;10.71;100.00;101429.09;4943614;29;20223;-71
2022/05/08 02:21:37;;;;;;;11.60;10.03;;;;;;;10.75;100.00;101426.44;4940257;29;20574;-70
2022/05/08 02:24:04;;;;;;;11.50;10.30;;;;;;;10.77;100.00;101424.66;4949169;28;20206;-70
2022/05/08 02:26:30;;;;;;;11.13;9.90;;;;;;;10.76;100.00;101422.97;4948874;28;20203;-70
2022/05/08 02:28:56;;;;;;;12.77;9.80;;;;;;;10.74;100.00;101429.91;4942364;28;20222;-70
2022/05/08 02:31:24;;;;;;;11.17;9.90;;;;;;;10.74;100.00;101429.06;4943766;28;20213;-70
2022/05/08 02:33:50;;;;;;;11.77;9.90;;;;;;;10.74;100.00;101431.69;4939525;29;20222;-70
2022/05/08 02:36:20;;;;;;;10.83;9.27;;;;;;;10.72;100.00;101431.69;4948897;29;20194;-70
2022/05/08 02:38:46;;;;;;;10.70;9.60;;;;;;;10.68;100.00;101431.78;4938918;28;20222;-70
2022/05/08 02:41:13;;;;;;;11.17;9.90;;;;;;;10.67;100.00;101437.88;4932511;29;20215;-70
2022/05/08 02:43:39;;;;;;;13.00;10.80;;;;;;;10.64;100.00;101430.97;4940254;29;20735;-70
2022/05/08 02:46:05;;;;;;;11.90;10.57;;;;;;;10.62;100.00;101430.09;4941390;29;20210;-70
2022/05/08 02:48:34;;;;;;;10.53;9.43;;;;;;;10.65;100.00;101434.41;4941605;29;20692;-71
2022/05/08 02:51:01;;;;;;;12.70;9.60;;;;;;;10.64;100.00;101432.69;4939329;28;20658;-70
2022/05/08 02:53:27;;;;;;;10.20;9.20;;;;;;;10.66;100.00;101434.41;4943546;29;20690;-71
2022/05/08 02:58:37;;;;;;;9.97;8.87;;;;;;;10.71;100.00;101432.59;4944384;28;20243;-70
2022/05/08 03:01:06;;;;;;;9.80;8.77;;;;;;;10.72;100.00;101436.06;4939195;29;20215;-71
2022/05/08 03:03:34;;;;;;;10.33;9.30;;;;;;;10.72;100.00;101433.44;4940243;29;20289;-70
2022/05/08 03:06:00;;;;;;;11.90;9.37;;;;;;;10.71;100.00;101437.81;4943567;29;20574;-70
2022/05/08 03:08:27;;;;;;;11.43;9.87;;;;;;;10.69;100.00;101443.91;4940065;29;20758;-70
2022/05/08 03:13:38;;;;;;;10.30;9.20;;;;;;;10.68;100.00;101440.44;4938805;29;20205;-70
2022/05/08 03:16:05;;;;;;;9.53;8.53;;;;;;;10.68;100.00;101430.03;4946176;29;20207;-71
2022/05/08 03:18:32;;;;;;;10.33;8.97;;;;;;;10.68;100.00;101442.22;4946573;28;20227;-71
2022/05/08 03:21:00;;;;;;;10.03;9.03;;;;;;;10.67;100.00;101446.53;4938626;29;20202;-70
2022/05/08 03:23:27;;;;;;;10.03;8.67;;;;;;;10.67;100.00;101443.09;4942403;28;20555;-70
2022/05/08 03:25:54;;;;;;;9.90;8.80;;;;;;;10.67;100.00;101445.69;4937872;28;20733;-71
2022/05/08 03:28:21;;;;;;;10.73;8.87;;;;;;;10.68;100.00;101445.66;4934485;29;20242;-70
2022/05/08 03:30:48;;;;;;;9.33;8.43;;;;;;;10.64;100.00;101437.91;4935508;28;20722;-70
2022/05/08 03:33:15;;;;;;;9.93;8.90;;;;;;;10.66;100.00;101438.72;4938477;29;20202;-70
2022/05/08 03:35:42;;;;;;;10.23;9.23;;;;;;;10.64;100.00;101445.72;4936304;29;20775;-70
2022/05/08 03:38:10;;;;;;;10.60;8.13;;;;;;;10.63;100.00;101457.91;4943148;29;20714;-70
2022/05/08 03:40:38;;;;;;;10.97;8.93;;;;;;;10.63;100.00;101444.88;4931431;29;20582;-70
2022/05/08 03:43:04;;;;;;;10.20;9.00;;;;;;;10.63;100.00;101449.22;4939291;28;20234;-70
2022/05/08 03:45:31;;;;;;;10.43;9.07;;;;;;;10.65;100.00;101453.53;4935455;28;20395;-71
2022/05/08 03:47:59;;;;;;;12.17;9.27;;;;;;;10.67;100.00;101459.59;4950482;29;20218;-71
2022/05/08 03:50:26;;;;;;;10.07;9.03;;;;;;;10.69;100.00;101459.56;4949170;28;20661;-71
2022/05/08 03:52:53;;;;;;;10.67;8.83;;;;;;;10.66;100.00;101468.31;4940397;29;20214;-70
2022/05/08 03:55:21;;;;;;;9.70;8.70;;;;;;;10.68;100.00;101469.16;4937920;29;20266;-70
2022/05/08 03:57:47;;;;;;;9.27;8.30;;;;;;;10.73;100.00;101462.13;4935033;29;20202;-70
2022/05/08 04:00:15;;;;;;;9.70;8.70;;;;;;;10.75;100.00;101468.19;4937773;29;20203;-70
2022/05/08 04:02:42;;;;;;;8.77;7.90;;;;;;;10.77;100.00;101463.78;4938900;29;20258;-70
2022/05/08 04:05:10;;;;;;;9.10;8.20;;;;;;;10.81;100.00;101467.22;4938696;29;20211;-70
2022/05/08 04:07:38;;;;;;;9.60;8.13;;;;;;;10.85;100.00;101468.91;4942370;29;20219;-70
2022/05/08 04:10:05;;;;;;;9.77;8.87;;;;;;;10.89;100.00;101480.19;4946780;29;20226;-71
2022/05/08 04:12:33;;;;;;;10.53;9.13;;;;;;;10.91;100.00;101481.03;4943832;28;20366;-70
2022/05/08 04:15:00;;;;;;;10.17;9.13;;;;;;;10.96;100.00;101485.28;4942358;29;20195;-70
2022/05/08 04:17:28;;;;;;;14.00;9.13;;;;;;;11.02;100.00;101481.72;4938578;29;20233;-70
2022/05/08 04:19:54;;;;;;;10.53;9.43;;;;;;;11.07;100.00;101486.88;4941244;29;20418;-70
2022/05/08 04:25:07;;;;;;;9.70;8.57;;;;;;;11.18;100.00;101484.97;4942844;29;20203;-71
2022/05/08 04:27:36;;;;;;;11.10;9.47;;;;;;;11.21;100.00;101491.91;4940035;28;20306;-71
2022/05/08 04:30:03;;;;;;;9.37;8.30;;;;;;;11.26;100.00;101490.09;4936262;29;20658;-70
2022/05/08 04:32:29;;;;;;;10.27;8.87;;;;;;;11.29;100.00;101488.28;4944299;28;20214;-70
2022/05/08 04:34:56;;;;;;;13.20;9.93;;;;;;;11.31;100.00;101496.06;4949475;29;20206;-71
2022/05/08 04:37:22;;;;;;;10.10;9.10;;;;;;;11.33;100.00;101497.78;4942152;29;20214;-70
2022/05/08 04:39:48;;;;;;;9.97;8.77;;;;;;;11.37;100.00;101496.00;4947717;29;20218;-70
2022/05/08 04:42:15;;;;;;;11.47;9.47;;;;;;;11.42;100.00;101495.94;4949862;29;20212;-70
2022/05/08 04:44:42;;;;;;;10.23;8.93;;;;;;;11.47;100.00;101494.13;4940866;29;20577;-70
2022/05/08 04:47:09;;;;;;;14.90;9.83;;;;;;;11.52;100.00;101494.88;4946074;29;20208;-70
2022/05/08 04:49:35;;;;;;;10.43;9.43;;;;;;;11.58;100.00;101505.22;4945704;29;20747;-70
2022/05/08 04:52:02;;;;;;;11.63;9.13;;;;;;;11.66;100.00;101507.72;4947513;28;20212;-71
2022/05/08 04:54:28;;;;;;;10.70;9.40;;;;;;;11.72;100.00;101507.63;4943099;28;20209;-70
2022/05/08 04:56:55;;;;;;;10.40;9.30;;;;;;;11.73;100.00;101515.44;4940359;29;20213;-70
2022/05/08 04:59:21;;;;;;;10.40;9.10;;;;;;;11.76;100.00;101517.13;4947432;28;20223;-70
2022/05/08 05:01:49;;;;;;;10.87;9.03;;;;;;;11.79;100.00;101519.69;4944438;29;20204;-71
2022/05/08 05:04:16;;;;;;;9.80;8.70;;;;;;;11.83;100.00;101513.50;4943509;29;20610;-70
2022/05/08 05:06:43;;;;;;;15.53;9.00;;;;;;;11.87;100.00;101517.81;4943016;29;20203;-70
2022/05/08 05:09:09;;;;;;;11.50;9.20;;;;;;;11.97;100.00;101518.53;4937264;28;20241;-70
2022/05/08 05:11:36;;;;;;;11.70;9.13;;;;;;;12.02;100.00;101527.16;4946384;29;20206;-70
2022/05/08 05:14:03;;;;;;;10.83;9.70;;;;;;;12.03;100.00;101528.91;4948830;28;20223;-70
2022/05/08 05:16:29;;;;;;;11.50;9.17;;;;;;;12.06;100.00;101520.97;4939832;29;20225;-70
2022/05/08 05:18:57;;;;;;;11.87;9.07;;;;;;;12.11;100.00;101532.22;4939614;29;20694;-70
2022/05/08 05:21:24;;;;;;;9.47;8.53;;;;;;;12.14;100.00;101533.94;4939192;28;20212;-71
2022/05/08 05:23:50;;;;;;;11.20;9.37;;;;;;;12.15;100.00;101535.63;4948128;28;20226;-70
2022/05/08 05:26:16;;;;;;;9.77;8.37;;;;;;;12.18;100.00;101539.97;4943096;28;20207;-70
2022/05/08 05:28:44;;;;;;;11.00;8.90;;;;;;;12.20;100.00;101538.19;4943768;28;20235;-70
2022/05/08 05:31:13;;;;;;;9.03;8.03;;;;;;;12.29;100.00;101544.13;4945109;28;20749;-70
2022/05/08 05:33:39;;;;;;;10.93;8.70;;;;;;;12.32;100.00;101546.66;4939761;29;20214;-70
2022/05/08 05:36:07;;;;;;;12.97;8.97;;;;;;;12.34;100.00;101551.84;4939532;29;20212;-70
2022/05/08 05:38:34;;;;;;;9.83;8.70;;;;;;;12.38;100.00;101556.13;4936061;29;20987;-70
2022/05/08 05:41:00;;;;;;;10.43;8.40;;;;;;;12.40;100.00;101558.72;4942044;29;20217;-71
2022/05/08 05:43:26;;;;;;;10.57;8.77;;;;;;;12.41;100.00;101555.22;4947513;29;20284;-70
2022/05/08 05:48:36;;;;;;;10.77;9.10;;;;;;;12.52;100.00;101566.31;4945070;29;20254;-70
2022/05/08 05:51:02;;;;;;;9.57;8.43;;;;;;;12.55;100.00;101565.41;4939763;29;20215;-70
2022/05/08 05:53:30;;;;;;;10.07;8.93;;;;;;;12.58;100.00;101568.00;4942064;28;20320;-71
2022/05/08 05:55:58;;;;;;;12.17;8.53;;;;;;;12.60;100.00;101577.50;4931470;29;20260;-70
2022/05/08 05:58:24;;;;;;;10.17;8.37;;;;;;;12.64;100.00;101573.09;4938237;29;20234;-70
2022/05/08 06:00:51;;;;;;;8.83;7.60;;;;;;;12.70;100.00;101572.97;4942350;29;20218;-71
2022/05/08 06:03:17;;;;;;;8.83;7.93;;;;;;;12.65;100.00;101569.59;4940588;28;20209;-70
2022/05/08 06:05:44;;;;;;;10.50;8.17;;;;;;;12.71;100.00;101573.84;4938521;29;20206;-70
2022/05/08 06:08:11;;;;;;;8.77;7.87;;;;;;;12.73;100.00;101577.28;4942879;29;20235;-70
2022/05/08 06:10:38;;;;;;;9.33;8.23;;;;;;;12.73;100.00;101583.34;4938329;29;20277;-70
2022/05/08 06:13:05;;;;;;;10.10;8.43;;;;;;;12.72;100.00;101583.38;4940325;29;20686;-70
2022/05/08 06:15:31;;;;;;;11.00;8.40;;;;;;;12.72;100.00;101583.38;4935913;29;20232;-70
2022/05/08 06:17:58;;;;;;;9.70;8.20;;;;;;;12.75;100.00;101583.34;4939906;29;20280;-70
2022/05/08 06:20:24;;;;;;;10.53;8.00;;;;;;;12.79;100.00;101587.63;4944178;28;20310;-70
2022/05/08 06:22:50;;;;;;;10.47;7.83;;;;;;;12.79;100.00;101593.72;4938324;29;20569;-71
2022/05/08 06:25:17;;;;;;;11.20;7.67;;;;;;;12.82;100.00;101595.41;4931624;29;20211;-71
2022/05/08 06:27:45;;;;;;;10.20;8.00;;;;;;;12.85;100.00;101601.44;4938379;29;20208;-70
2022/05/08 06:30:12;;;;;;;8.83;7.93;;;;;;;12.87;100.00;101601.41;4945731;28;20236;-71
2022/05/08 06:32:39;;;;;;;8.13;7.07;;;;;;;12.92;100.00;101599.56;4939707;29;20214;-71
2022/05/08 06:35:05;;;;;;;12.43;8.03;;;;;;;12.98;100.00;101604.69;4939497;29;20215;-70
2022/05/08 06:37:32;;;;;;;8.07;6.97;;;;;;;13.06;100.00;101604.50;4939549;28;20211;-70
2022/05/08 06:39:58;;;;;;;9.47;7.53;;;;;;;13.04;100.00;101609.78;4939264;29;20226;-70
2022/05/08 06:42:25;;;;;;;9.10;7.20;;;;;;;13.06;100.00;101613.22;4938731;29;20568;-70
2022/05/08 06:44:55;;;;;;;8.00;7.20;;;;;;;13.14;100.00;101607.84;4943570;29;20266;-71
2022/05/08 06:47:22;;;;;;;11.87;7.80;;;;;;;13.16;100.00;101611.28;4944593;28;20304;-70
2022/05/08 06:49:48;;;;;;;10.47;7.37;;;;;;;13.15;100.00;101608.69;4945497;29;20217;-71
2022/05/08 06:52:16;;;;;;;9.13;7.47;;;;;;;13.22;100.00;101610.28;4943465;29;20219;-70
2022/05/08 06:54:42;;;;;;;8.47;7.27;;;;;;;13.34;100.00;101617.91;4938026;29;20210;-70
2022/05/08 06:57:10;;;;;;;9.80;7.40;;;;;;;13.37;100.00;101622.25;4943057;29;20220;-70
2022/05/08 07:02:21;;;;;;;10.47;7.60;;;;;;;13.54;100.00;101622.69;4946955;29;20215;-70
2022/05/08 07:04:48;;;;;;;9.77;7.40;;;;;;;13.53;100.00;101621.00;4945300;28;20576;-70
2022/05/08 07:07:15;;;;;;;8.67;6.67;;;;;;;13.62;100.00;101627.78;4940290;28;20211;-71
2022/05/08 07:09:43;;;;;;;7.77;6.73;;;;;;;13.73;100.00;101635.38;4933916;29;20229;-70
2022/05/08 07:12:11;;;;;;;7.67;6.87;;;;;;;13.72;100.00;101634.53;4946642;28;20207;-71
2022/05/08 07:14:40;;;;;;;9.27;7.60;;;;;;;13.82;100.00;101637.78;4942756;28;20573;-71
2022/05/08 07:17:07;;;;;;;10.40;7.50;;;;;;;13.88;100.00;101642.00;4940845;28;20278;-70
2022/05/08 07:19:35;;;;;;;9.23;7.40;;;;;;;13.90;100.00;101643.72;4942019;29;20385;-71
2022/05/08 07:22:01;;;;;;;8.27;6.90;;;;;;;14.00;100.00;101645.22;4941704;29;20710;-70
2022/05/08 07:24:27;;;;;;;8.40;7.10;;;;;;;14.15;100.00;101638.72;4935494;29;20207;-70
2022/05/08 07:26:54;;;;;;;7.60;6.73;;;;;;;14.20;99.57;101642.09;4945153;29;20211;-71
2022/05/08 07:29:20;;;;;;;7.60;6.63;;;;;;;14.42;99.96;101646.78;4939974;29;20219;-71
2022/05/08 07:31:46;;;;;;;8.73;6.77;;;;;;;14.64;100.00;101646.28;4942267;28;20231;-70
2022/05/08 07:36:58;;;;;;;8.03;7.20;;;;;;;14.72;97.00;101655.69;4940513;29;20210;-70
2022/05/08 07:39:25;;;;;;;7.77;6.97;;;;;;;14.89;96.97;101651.72;4944374;29;20227;-71
2022/05/08 07:41:51;;;;;;;9.43;7.37;;;;;;;14.94;96.09;101660.31;4939255;29;20205;-71
2022/05/08 07:44:18;;;;;;;11.13;7.00;;;;;;;14.94;96.01;101658.56;4940408;29;20546;-71
2022/05/08 07:46:44;;;;;;;8.60;7.17;;;;;;;15.08;95.13;101659.94;4939910;29;20268;-71
2022/05/08 07:49:11;;;;;;;8.20;6.93;;;;;;;15.14;93.89;101660.63;4941138;28;20703;-71
2022/05/08 07:51:37;;;;;;;9.97;7.77;;;;;;;15.08;93.50;101663.41;4941904;28;20701;-70
2022/05/08 07:54:05;;;;;;;7.17;6.47;;;;;;;15.24;93.71;101665.63;4940189;28;20614;-70
2022/05/08 07:56:32;;;;;;;7.87;6.70;;;;;;;15.38;93.48;101670.47;4942344;28;20230;-69
2022/05/08 07:58:58;;;;;;;9.83;7.40;;;;;;;15.41;92.81;101665.09;4943624;29;20220;-70
2022/05/08 08:01:25;;;;;;;8.40;7.60;;;;;;;15.45;93.81;101674.63;4943785;29;20213;-70
2022/05/08 08:03:51;;;;;;;8.70;7.80;;;;;;;15.52;93.83;101681.44;4938858;28;20725;-70
2022/05/08 08:06:17;;;;;;;9.57;7.97;;;;;;;15.55;93.12;101676.09;4946680;29;20260;-70
2022/05/08 08:08:44;;;;;;;10.03;8.20;;;;;;;15.58;92.43;101672.47;4948466;29;20226;-70
2022/05/08 08:11:13;;;;;;;10.13;7.53;;;;;;;15.70;92.40;101678.22;4946278;29;20801;-70
2022/05/08 08:13:39;;;;;;;8.67;7.77;;;;;;;15.79;91.25;101679.72;4937604;29;20209;-70
2022/05/08 08:16:06;;;;;;;10.03;8.03;;;;;;;15.92;90.75;101687.25;4937791;29;20214;-70
2022/05/08 08:18:36;;;;;;;9.50;8.00;;;;;;;16.05;90.19;101684.16;4938849;29;20304;-70
2022/05/08 08:21:04;;;;;;;12.03;7.17;;;;;;;16.25;88.51;101691.44;4940796;29;20207;-69
2022/05/08 08:23:31;;;;;;;8.83;7.93;;;;;;;16.35;85.86;101693.75;4939005;29;20940;-70
2022/05/08 08:25:57;;;;;;;9.77;7.20;;;;;;;16.50;85.58;101701.13;4945644;29;20206;-70
2022/05/08 08:28:25;;;;;;;7.87;6.60;;;;;;;16.66;85.92;101693.56;4940760;28;20223;-70
2022/05/08 08:30:51;;;;;;;8.03;7.23;;;;;;;16.82;84.85;101700.00;4939165;29;20232;-70
2022/05/08 08:33:17;;;;;;;8.47;7.67;;;;;;;16.87;84.46;101706.91;4942789;29;20199;-70
2022/05/08 08:35:46;;;;;;;7.90;7.10;;;;;;;16.83;86.49;101703.50;4941927;28;20237;-70
2022/05/08 08:38:14;;;;;;;9.07;7.57;;;;;;;16.95;86.98;101692.56;4942187;29;20236;-70
2022/05/08 08:40:42;;;;;;;11.93;7.13;;;;;;;17.00;85.43;101701.16;4941927;29;20206;-70
2022/05/08 08:43:11;;;;;;;7.97;6.77;;;;;;;17.10;84.08;101701.69;4937872;29;20697;-70
2022/05/08 08:48:28;;;;;;;7.73;6.07;;;;;;;17.16;81.85;101705.88;4935568;29;20440;-70
2022/05/08 08:50:56;;;;;;;6.73;6.13;;;;;;;17.26;82.49;101709.06;4934890;29;20222;-70
2022/05/08 08:53:23;;;;;;;6.67;5.97;;;;;;;17.45;80.66;101706.56;4936596;29;20563;-70
2022/05/08 08:55:50;;;;;;;7.40;6.00;;;;;;;17.51;80.37;101704.56;4935487;29;20221;-70
2022/05/08 08:58:16;;;;;;;10.07;6.83;;;;;;;17.51;79.07;101711.63;4944766;29;20305;-70
2022/05/08 09:00:46;;;;;;;6.57;5.93;;;;;;;17.56;79.86;101704.41;4942036;28;20585;-70
2022/05/08 09:03:12;;;;;;;7.03;6.33;;;;;;;17.70;78.45;101710.00;4944021;28;20579;-70
2022/05/08 09:05:39;;;;;;;7.47;5.97;;;;;;;17.88;77.35;101710.22;4941494;28;20207;-70
2022/05/08 09:08:06;;;;;;;7.03;6.33;;;;;;;17.85;76.96;101705.88;4940326;29;20198;-70
2022/05/08 09:10:36;;;;;;;7.03;6.33;;;;;;;17.79;78.20;101711.41;4937514;29;20230;-70
2022/05/08 09:13:05;;;;;;;7.63;5.60;;;;;;;17.92;77.74;101709.19;4943839;28;20215;-70
2022/05/08 09:15:34;;;;;;;6.83;6.13;;;;;;;17.93;76.81;101718.81;4941274;28;20214;-69
2022/05/08 09:18:04;;;;;;;8.70;5.97;;;;;;;17.83;76.18;101713.00;4943148;29;20211;-70
2022/05/08 09:20:32;;;;;;;8.87;5.63;;;;;;;17.65;76.39;101722.50;4944037;28;20238;-70
2022/05/08 09:23:11;;;;;;;6.20;5.50;;;;;;;17.60;76.90;101711.25;4940674;29;20609;-70
2022/05/08 09:25:53;;;;;;;6.63;5.40;;;;;;;17.60;77.44;101714.75;4939170;29;20222;-70
2022/05/08 09:28:21;;;;;;;5.93;5.07;;;;;;;17.72;76.85;101721.34;4932933;28;20235;-70
2022/05/08 09:31:05;;;;;;;5.40;4.90;;;;;;;17.71;76.36;101716.13;4940067;28;20222;-70
2022/05/08 09:33:36;;;;;;;7.23;4.77;;;;;;;17.73;76.33;101715.16;4946685;29;20213;-70
2022/05/08 09:36:04;;;;;;;5.97;4.63;;;;;;;17.96;76.11;101714.28;4938930;28;20820;-70
2022/05/08 09:38:48;;;;;;;5.53;4.97;;;;;;;18.15;77.87;101719.69;4936739;28;20227;-70
2022/05/08 09:41:17;;;;;;;5.63;4.87;;;;;;;18.26;76.76;101710.47;4940065;28;20289;-70
2022/05/08 09:43:43;;;;;;;5.40;4.77;;;;;;;18.39;73.65;101719.59;4949516;29;20190;-71
2022/05/08 09:46:10;;;;;;;7.43;4.80;;;;;;;18.47;73.16;101717.50;4944674;29;20203;-70
2022/05/08 09:48:38;;;;;;;5.57;5.07;;;;;;;18.41;73.15;101719.53;4940293;29;20226;-70
2022/05/08 09:51:06;;;;;;;5.87;4.67;;;;;;;18.57;73.67;101717.09;4944105;29;20223;-70
2022/05/08 09:53:33;;;;;;;6.77;4.90;;;;;;;18.68;74.65;101712.19;4938136;29;20696;-70
2022/05/08 09:56:01;;;;;;;5.60;4.83;;;;;;;18.91;73.68;101711.25;4943241;28;20231;-71
2022/05/08 09:58:28;;;;;;;5.13;4.27;;;;;;;19.15;69.15;101717.22;4936135;29;20305;-69
2022/05/08 10:00:56;;;;;;;4.67;4.20;;;;;;;19.00;67.92;101718.78;4936919;28;20195;-71
2022/05/08 10:03:22;;;;;;;7.80;4.03;;;;;;;19.08;67.99;101719.31;4933927;29;20207;-71
2022/05/08 10:05:55;;;;;;;6.30;4.07;;;;;;;18.95;67.32;101717.28;4934085;28;20207;-70
2022/05/08 10:08:24;;;;;;;4.40;4.00;;;;;;;18.97;69.14;101713.63;4937909;28;20234;-70
2022/05/08 10:13:57;;;;;;;4.33;3.93;;;;;;;18.65;70.09;101712.34;4945760;28;20202;-71
2022/05/08 10:16:52;;;;;;;11.83;4.37;;;;;;;18.55;69.23;101714.50;4942139;29;20230;-70
2022/05/08 10:19:47;;;;;;;3.63;3.10;;;;;;;18.44;70.45;101719.41;4943193;29;20619;-71
2022/05/08 10:22:15;;;;;;;6.07;3.50;;;;;;;18.47;70.71;101720.13;4943498;29;20294;-71
2022/05/08 10:24:46;;;;;;;4.03;3.60;;;;;;;18.59;70.78;101721.41;4942866;28;20298;-70
2022/05/08 10:27:15;;;;;;;4.77;3.10;;;;;;;18.45;66.11;101727.25;4941162;29;20206;-70
2022/05/08 10:29:42;;;;;;;5.63;3.37;;;;;;;18.60;66.44;101720.47;4938088;28;20229;-70
2022/05/08 10:32:10;;;;;;;4.43;2.63;;;;;;;18.72;66.73;101716.44;4937630;29;20221;-71
2022/05/08 10:34:39;;;;;;;3.73;2.93;;;;;;;18.81;65.25;101728.41;4940795;29;20230;-70
2022/05/08 10:37:29;;;;;;;3.43;3.00;;;;;;;18.78;65.24;101718.81;4934327;29;20706;-70
2022/05/08 10:39:56;;;;;;;3.53;2.40;;;;;;;18.93;64.72;101722.63;4939272;29;20222;-70
2022/05/08 10:42:45;;;;;;;3.53;2.73;;;;;;;18.92;64.77;101721.72;4937440;28;20210;-70
2022/05/08 10:45:40;;;;;;;4.87;2.90;;;;;;;19.00;65.21;101720.56;4934668;29;20199;-70
2022/05/08 10:48:10;;;;;;;4.13;3.10;;;;;;;19.14;62.92;101722.56;4936896;29;20240;-70
2022/05/08 10:50:37;;;;;;;3.27;2.90;;;;;;;19.30;65.33;101713.03;4940473;29;20234;-71
2022/05/08 10:53:06;;;;;;;3.47;2.90;;;;;;;19.40;62.25;101722.28;4933332;29;20211;-70
2022/05/08 10:55:33;;;;;;;3.93;2.90;;;;;;;19.35;60.31;101726.03;4937766;29;20265;-70
2022/05/08 10:58:00;;;;;;;3.63;2.90;;;;;;;19.25;59.60;101729.09;4937828;29;20265;-70
2022/05/08 11:00:28;;;;;;;8.83;3.03;;;;;;;19.17;62.31;101718.03;4938741;29;20206;-70
2022/05/08 11:02:55;;;;;;;3.40;2.90;;;;;;;19.40;62.82;101719.63;4936034;29;20199;-70
2022/05/08 11:05:23;;;;;;;3.97;2.73;;;;;;;19.57;60.57;101712.69;4939387;29;20213;-71
2022/05/08 11:07:51;;;;;;;3.67;2.70;;;;;;;19.47;58.75;101714.88;4943508;29;20223;-70
2022/05/08 11:10:23;;;;;;;3.57;2.60;;;;;;;19.29;61.26;101716.59;4944783;28;20225;-70
2022/05/08 11:13:02;;;;;;;2.80;2.50;;;;;;;19.15;59.51;101722.50;4940191;29;20581;-69
2022/05/08 11:15:29;;;;;;;4.37;2.57;;;;;;;19.14;59.79;101717.28;4935329;29;20225;-71
2022/05/08 11:18:07;;;;;;;4.53;2.70;;;;;;;19.03;63.40;101708.06;4938893;28;20206;-70
2022/05/08 11:20:36;;;;;;;3.57;2.20;;;;;;;19.10;59.61;101716.56;4933686;29;20213;-69
2022/05/08 11:23:03;;;;;;;3.23;2.50;;;;;;;18.96;60.33;101711.03;4935067;29;20209;-71
2022/05/08 11:25:32;;;;;;;4.10;2.23;;;;;;;18.95;58.21;101714.63;4940447;28;20207;-70
2022/05/08 11:27:59;;;;;;;3.73;2.47;;;;;;;19.18;59.52;101714.44;4935668;29;20211;-70
2022/05/08 11:30:31;;;;;;;2.87;2.27;;;;;;;19.65;59.40;101707.91;4931779;29;20270;-70
2022/05/08 11:36:08;;;;;;;3.23;2.30;;;;;;;19.74;55.52;101707.50;4933515;28;20875;-70
2022/05/08 11:38:42;;;;;;;4.90;2.70;;;;;;;19.72;54.59;101705.81;4934120;29;20817;-70
2022/05/08 11:41:14;;;;;;;5.10;2.60;;;;;;;19.89;55.95;101707.69;4936781;28;20209;-70
2022/05/08 11:43:43;;;;;;;3.27;2.37;;;;;;;20.09;55.94;101704.94;4941881;28;20214;-70
2022/05/08 11:46:13;;;;;;;4.33;2.60;;;;;;;20.32;55.14;101706.44;4939665;29;20207;-70
2022/05/08 11:48:41;;;;;;;3.13;2.23;;;;;;;20.20;52.09;101704.41;4938851;29;20254;-70